Time;durP1;ratioP1;P1;durP2;ratioP2;P2;SDS_P1;SDS_P2;PMS_P1;PMS_P2;Temp;Humidity;BMP_temperature;BMP_pressure;BME280_temperature;BME280_humidity;BME280_pressure;Samples;Min_cycle;Max_cycle;Signal;HPM_P1;HPM_P2
2023/04/21 00:01:47;;;;;;;38.90;23.10;;;10.00;99.90;;;;;;5073767;28;20037;-94
2023/04/21 00:04:13;;;;;;;39.60;21.92;;;9.90;99.90;;;;;;5074017;28;20039;-91
2023/04/21 00:06:40;;;;;;;41.10;22.15;;;9.80;99.90;;;;;;5045919;28;20056;-90
2023/04/21 00:09:07;;;;;;;36.00;21.77;;;9.80;99.90;;;;;;5038445;28;20051;-93
2023/04/21 00:11:34;;;;;;;43.50;23.10;;;9.80;99.90;;;;;;5038490;28;20029;-94
2023/04/21 00:14:00;;;;;;;37.30;22.52;;;9.70;99.90;;;;;;5038251;28;20029;-90
2023/04/21 00:16:36;;;;;;;39.88;23.42;;;9.60;99.90;;;;;;5038691;28;20116;-93
2023/04/21 00:19:05;;;;;;;37.92;21.60;;;9.60;99.90;;;;;;5036694;28;20028;-94
2023/04/21 00:21:33;;;;;;;36.15;22.75;;;9.70;99.90;;;;;;5038435;28;20044;-92
2023/04/21 00:23:59;;;;;;;36.63;22.10;;;9.70;99.90;;;;;;5036197;28;20044;-91
2023/04/21 00:26:25;;;;;;;34.55;21.48;;;9.80;99.90;;;;;;5045715;28;20051;-92
2023/04/21 00:28:52;;;;;;;33.17;21.52;;;9.80;99.90;;;;;;5065223;28;20086;-91
2023/04/21 00:31:18;;;;;;;38.35;21.40;;;9.80;99.90;;;;;;5058312;28;20055;-93
2023/04/21 00:33:45;;;;;;;35.47;22.33;;;9.80;99.90;;;;;;5038089;28;20025;-92
2023/04/21 00:36:11;;;;;;;33.42;20.40;;;9.80;99.90;;;;;;5038249;28;20501;-92
2023/04/21 00:38:38;;;;;;;32.47;20.63;;;9.80;99.90;;;;;;5037946;28;20036;-91
2023/04/21 00:41:04;;;;;;;30.73;20.58;;;9.80;99.90;;;;;;5038153;28;20040;-92
2023/04/21 00:43:31;;;;;;;30.40;20.50;;;9.70;99.90;;;;;;5054601;28;20151;-91
2023/04/21 00:45:57;;;;;;;29.92;19.85;;;9.70;99.90;;;;;;5038171;28;20029;-92
2023/04/21 00:48:24;;;;;;;31.08;20.90;;;9.60;99.90;;;;;;5037671;28;20087;-92
2023/04/21 00:50:51;;;;;;;31.40;19.38;;;9.60;99.90;;;;;;5037599;28;20025;-92
2023/04/21 00:53:19;;;;;;;32.70;20.42;;;9.70;99.90;;;;;;5037537;28;20095;-93
2023/04/21 00:55:46;;;;;;;29.58;19.73;;;9.70;99.90;;;;;;5037628;28;20047;-90
2023/04/21 00:58:13;;;;;;;28.65;18.15;;;9.70;99.90;;;;;;5033311;28;20397;-89
2023/04/21 01:00:39;;;;;;;28.08;18.67;;;9.70;99.90;;;;;;5037738;28;20039;-92
2023/04/21 01:03:06;;;;;;;26.40;18.73;;;9.60;99.90;;;;;;5035948;28;20556;-90
2023/04/21 01:05:33;;;;;;;36.63;20.00;;;9.50;99.90;;;;;;5037256;28;20071;-91
2023/04/21 01:08:01;;;;;;;29.40;18.33;;;9.50;99.90;;;;;;5037698;28;20029;-92
2023/04/21 01:10:32;;;;;;;33.50;19.77;;;9.50;99.90;;;;;;5032278;28;20032;-91
2023/04/21 01:12:59;;;;;;;34.58;20.98;;;9.60;99.90;;;;;;5037397;28;20028;-91
2023/04/21 01:15:28;;;;;;;40.38;21.30;;;9.50;99.90;;;;;;5037354;28;20054;-93
2023/04/21 01:17:55;;;;;;;40.30;23.05;;;9.50;99.90;;;;;;5037169;28;20100;-92
2023/04/21 01:20:23;;;;;;;53.28;27.40;;;9.50;99.90;;;;;;5037047;28;20041;-92
2023/04/21 01:22:50;;;;;;;55.15;28.02;;;9.50;99.90;;;;;;5038027;28;20394;-93
2023/04/21 01:25:18;;;;;;;54.90;26.83;;;9.50;99.90;;;;;;5037228;28;20509;-93
2023/04/21 01:27:48;;;;;;;56.72;28.80;;;9.50;99.90;;;;;;5037036;28;20025;-93
2023/04/21 01:30:14;;;;;;;87.65;31.80;;;9.40;99.90;;;;;;5037312;28;20052;-91
2023/04/21 01:32:41;;;;;;;101.28;32.03;;;9.30;99.90;;;;;;5035231;28;20108;-91
2023/04/21 01:35:08;;;;;;;62.50;28.45;;;9.20;99.90;;;;;;5036934;28;20366;-91
2023/04/21 01:37:36;;;;;;;102.18;31.35;;;9.20;99.90;;;;;;5036991;28;20136;-94
2023/04/21 01:40:06;;;;;;;102.03;32.95;;;9.10;99.90;;;;;;5032260;28;20055;-94
2023/04/21 01:42:34;;;;;;;156.73;32.60;;;9.10;99.90;;;;;;5053934;28;20125;-92
2023/04/21 01:45:01;;;;;;;119.45;27.50;;;9.10;99.90;;;;;;5036754;28;20497;-92
2023/04/21 01:47:28;;;;;;;92.63;25.60;;;9.20;99.90;;;;;;5036977;28;20033;-93
2023/04/21 01:49:55;;;;;;;92.80;27.90;;;9.20;99.90;;;;;;5036677;28;20048;-95
2023/04/21 01:52:21;;;;;;;84.93;24.75;;;9.10;99.90;;;;;;5048655;28;20048;-93
2023/04/21 01:54:48;;;;;;;56.88;23.38;;;9.10;99.90;;;;;;5036895;28;20025;-92
2023/04/21 01:57:18;;;;;;;83.50;26.67;;;9.10;99.90;;;;;;5053626;28;20033;-93
2023/04/21 01:59:45;;;;;;;104.45;26.67;;;9.20;99.90;;;;;;5036755;28;20025;-90
2023/04/21 02:02:12;;;;;;;120.55;29.08;;;9.20;99.90;;;;;;5037137;28;20033;-93
2023/04/21 02:04:38;;;;;;;112.88;28.02;;;9.20;99.90;;;;;;5035511;28;20029;-91
2023/04/21 02:07:05;;;;;;;131.98;27.63;;;9.20;99.90;;;;;;5048387;28;20009;-92
2023/04/21 02:09:32;;;;;;;96.45;26.35;;;9.20;99.90;;;;;;5077576;28;20104;-90
2023/04/21 02:11:59;;;;;;;59.60;24.88;;;9.20;99.90;;;;;;5073168;28;20012;-91
2023/04/21 02:14:25;;;;;;;51.00;23.25;;;9.10;99.90;;;;;;5062134;28;20029;-90
2023/04/21 02:16:52;;;;;;;46.90;22.58;;;9.10;99.90;;;;;;5057180;28;20390;-91
2023/04/21 02:19:19;;;;;;;66.40;23.67;;;9.00;99.90;;;;;;5056343;28;20082;-90
2023/04/21 02:21:45;;;;;;;104.20;25.98;;;9.00;99.90;;;;;;5056703;28;20115;-90
2023/04/21 02:24:13;;;;;;;68.35;24.65;;;8.90;99.90;;;;;;5060920;28;20115;-92
2023/04/21 02:26:40;;;;;;;164.82;31.23;;;8.90;99.90;;;;;;5060510;28;20029;-90
2023/04/21 02:29:06;;;;;;;183.23;31.88;;;8.90;99.90;;;;;;5060258;28;20024;-91
2023/04/21 02:31:36;;;;;;;110.88;26.77;;;9.00;99.90;;;;;;5058887;28;20024;-94
2023/04/21 02:34:02;;;;;;;119.70;27.92;;;8.90;99.90;;;;;;5058826;28;20123;-91
2023/04/21 02:36:31;;;;;;;65.25;22.77;;;8.80;99.90;;;;;;5061032;28;20029;-91
2023/04/21 02:38:57;;;;;;;52.25;22.10;;;8.80;99.90;;;;;;5060897;28;20029;-91
2023/04/21 02:41:23;;;;;;;49.08;23.90;;;8.70;99.90;;;;;;5060663;28;20029;-93
2023/04/21 02:43:50;;;;;;;40.17;21.75;;;8.70;99.90;;;;;;5060740;28;20028;-92
2023/04/21 02:46:17;;;;;;;34.33;20.98;;;8.70;99.90;;;;;;5060101;28;20044;-93
2023/04/21 02:48:44;;;;;;;43.75;22.30;;;8.50;99.90;;;;;;5059971;28;20032;-93
2023/04/21 02:51:12;;;;;;;40.28;20.95;;;8.50;99.90;;;;;;5060031;28;20103;-92
2023/04/21 02:53:39;;;;;;;36.80;20.92;;;8.40;99.90;;;;;;5059783;28;20044;-92
2023/04/21 02:56:09;;;;;;;34.35;19.73;;;8.30;99.90;;;;;;5059800;28;20028;-91
2023/04/21 02:58:36;;;;;;;29.35;18.85;;;8.30;99.90;;;;;;5059770;28;20037;-92
2023/04/21 03:01:03;;;;;;;27.55;16.80;;;8.30;99.90;;;;;;5059729;28;20036;-91
2023/04/21 03:03:30;;;;;;;30.58;18.30;;;8.20;99.90;;;;;;5059780;28;20040;-91
2023/04/21 03:05:58;;;;;;;27.17;16.52;;;8.20;99.90;;;;;;5059874;28;20053;-92
2023/04/21 03:08:28;;;;;;;23.90;16.08;;;8.20;99.90;;;;;;5056160;28;20029;-91
2023/04/21 03:10:55;;;;;;;24.33;15.43;;;8.20;99.90;;;;;;5072724;28;20494;-92
2023/04/21 03:13:23;;;;;;;23.42;16.08;;;8.20;99.90;;;;;;5072839;28;20149;-92
2023/04/21 03:15:51;;;;;;;22.10;15.40;;;8.20;99.90;;;;;;5072785;28;20025;-91
2023/04/21 03:18:18;;;;;;;24.95;16.17;;;8.10;99.90;;;;;;5072747;28;20486;-93
2023/04/21 03:20:44;;;;;;;22.90;15.50;;;8.00;99.90;;;;;;5072725;28;20124;-93
2023/04/21 03:23:11;;;;;;;23.75;15.77;;;7.90;99.90;;;;;;5072769;28;20029;-92
2023/04/21 03:25:38;;;;;;;20.25;14.38;;;8.00;99.90;;;;;;5072341;28;20033;-93
2023/04/21 03:28:04;;;;;;;29.10;16.05;;;8.00;99.90;;;;;;5072886;28;20025;-93
2023/04/21 03:30:31;;;;;;;22.30;14.57;;;7.90;99.90;;;;;;5072560;28;20029;-91
2023/04/21 03:33:00;;;;;;;21.88;14.85;;;7.90;99.90;;;;;;5072102;28;20108;-93
2023/04/21 03:35:27;;;;;;;26.30;16.52;;;7.90;99.90;;;;;;5073717;28;20021;-93
2023/04/21 03:37:56;;;;;;;24.05;16.05;;;7.80;99.90;;;;;;5072551;28;20539;-93
2023/04/21 03:42:58;;;;;;;21.58;15.07;;;7.80;99.90;;;;;;5246540;22;20071;-93
2023/04/21 03:45:27;;;;;;;21.27;14.73;;;7.80;99.90;;;;;;5066384;28;20029;-92
2023/04/21 03:47:58;;;;;;;25.30;16.25;;;7.80;99.90;;;;;;5095238;28;20016;-93
2023/04/21 03:50:25;;;;;;;19.58;13.77;;;7.80;99.90;;;;;;5097504;28;20036;-93
2023/04/21 03:52:52;;;;;;;20.55;14.60;;;7.80;99.90;;;;;;5065830;28;20032;-93
2023/04/21 03:55:19;;;;;;;20.98;14.65;;;7.80;99.90;;;;;;5067586;28;20476;-93
2023/04/21 04:04:51;;;;;;;17.58;12.70;;;7.80;99.90;;;;;;5177113;22;20083;-93
2023/04/21 04:16:20;;;;;;;23.33;14.65;;;8.00;99.90;;;;;;5056373;28;20143;-93
2023/04/21 04:18:49;;;;;;;37.45;15.77;;;8.00;99.90;;;;;;5040414;28;20556;-92
2023/04/21 04:21:16;;;;;;;21.85;14.27;;;8.10;99.90;;;;;;5075924;28;20104;-94
2023/04/21 04:23:52;;;;;;;33.20;15.32;;;8.00;99.90;;;;;;5076745;28;20096;-92
2023/04/21 04:26:21;;;;;;;53.90;17.38;;;8.00;99.90;;;;;;5066797;28;20030;-93
2023/04/21 04:28:48;;;;;;;41.92;17.20;;;8.10;99.90;;;;;;5057112;28;20025;-94
2023/04/21 04:31:15;;;;;;;33.90;15.25;;;8.10;99.90;;;;;;5038839;28;20029;-92
2023/04/21 04:33:43;;;;;;;60.78;17.50;;;8.30;99.90;;;;;;5055416;28;20040;-94
2023/04/21 04:36:10;;;;;;;40.10;14.30;;;8.30;99.90;;;;;;5050673;28;20025;-94
2023/04/21 04:38:37;;;;;;;25.40;14.73;;;8.30;99.90;;;;;;5057345;28;20033;-94
2023/04/21 04:41:05;;;;;;;28.38;15.55;;;8.40;99.90;;;;;;5055612;28;20037;-91
2023/04/21 04:43:37;;;;;;;21.77;13.70;;;8.50;99.90;;;;;;5062457;28;20094;-94
2023/04/21 04:51:58;;;;;;;20.17;13.07;;;8.80;99.90;;;;;;5463279;22;20519;-94
2023/04/21 04:55:13;;;;;;;26.42;14.10;;;9.10;99.90;;;;;;5073492;23;20052;-93
2023/04/21 04:58:16;;;;;;;32.75;12.40;;;9.30;99.90;;;;;;5084965;28;20036;-94
2023/04/21 05:00:43;;;;;;;28.90;13.82;;;9.50;99.90;;;;;;5022116;28;20045;-92
2023/04/21 05:03:09;;;;;;;57.53;14.82;;;9.70;99.90;;;;;;5054394;23;20043;-94
2023/04/21 05:05:38;;;;;;;34.28;15.07;;;9.90;99.90;;;;;;5099242;28;20023;-91
2023/04/21 05:08:13;;;;;;;31.05;16.02;;;10.10;99.90;;;;;;5119892;22;20139;-93
2023/04/21 05:10:43;;;;;;;30.23;19.42;;;10.40;99.90;;;;;;5061104;28;20048;-94
2023/04/21 05:13:15;;;;;;;28.83;18.23;;;10.80;99.90;;;;;;5058736;28;20025;-94
2023/04/21 05:15:43;;;;;;;46.25;19.70;;;11.20;99.90;;;;;;5059731;28;20028;-93
2023/04/21 05:18:15;;;;;;;27.35;18.65;;;11.60;99.90;;;;;;5056538;28;20060;-93
2023/04/21 05:20:50;;;;;;;33.10;20.90;;;11.90;99.90;;;;;;5067136;28;20044;-94
2023/04/21 05:23:45;;;;;;;25.25;21.25;;;12.40;99.90;;;;;;5074779;28;20029;-95
2023/04/21 05:26:17;;;;;;;24.17;21.58;;;12.90;99.90;;;;;;5056677;28;20037;-93
2023/04/21 05:28:43;;;;;;;27.08;24.25;;;13.70;99.90;;;;;;5076248;28;20085;-95
2023/04/21 05:31:10;;;;;;;27.15;24.50;;;14.40;99.90;;;;;;5064026;28;20040;-92
2023/04/21 05:33:36;;;;;;;25.77;23.45;;;15.20;99.90;;;;;;5057386;28;20031;-90
2023/04/21 05:36:09;;;;;;;26.30;23.77;;;15.80;99.90;;;;;;5057706;28;20122;-92
2023/04/21 05:38:36;;;;;;;26.75;24.35;;;16.40;99.90;;;;;;5057449;28;20384;-93
2023/04/21 05:41:03;;;;;;;26.27;23.95;;;16.90;99.90;;;;;;5057091;28;20090;-93
2023/04/21 05:43:33;;;;;;;23.67;21.70;;;17.40;99.90;;;;;;5074902;28;20032;-92
2023/04/21 05:46:07;;;;;;;22.52;20.90;;;17.70;99.90;;;;;;5058730;28;20063;-92
2023/04/21 05:48:34;;;;;;;24.15;22.35;;;18.30;99.90;;;;;;5059618;28;20101;-95
2023/04/21 05:51:16;;;;;;;22.63;21.05;;;18.90;99.90;;;;;;5058490;28;20032;-93
2023/04/21 05:53:44;;;;;;;22.95;21.45;;;19.30;99.90;;;;;;5059032;28;20056;-93
2023/04/21 05:56:12;;;;;;;22.95;21.45;;;19.90;99.90;;;;;;5058807;28;20569;-93
2023/04/21 05:58:39;;;;;;;23.33;21.67;;;20.30;99.90;;;;;;5075307;28;20037;-92
2023/04/21 06:01:05;;;;;;;22.95;21.45;;;20.10;99.90;;;;;;5058874;28;20104;-94
2023/04/21 06:03:32;;;;;;;23.67;22.15;;;20.40;99.90;;;;;;5059227;28;20024;-93
2023/04/21 06:06:01;;;;;;;23.33;21.83;;;20.70;99.90;;;;;;5057670;28;20024;-95
2023/04/21 06:08:27;;;;;;;22.90;21.40;;;21.00;99.90;;;;;;5016245;28;20042;-94
2023/04/21 06:10:54;;;;;;;22.48;20.70;;;20.70;99.90;;;;;;4999891;28;20053;-94
2023/04/21 06:13:20;;;;;;;23.35;21.65;;;21.20;99.90;;;;;;4998486;28;20116;-93
2023/04/21 06:15:47;;;;;;;23.25;21.67;;;21.80;99.90;;;;;;5000820;28;20032;-92
2023/04/21 06:18:13;;;;;;;23.20;21.42;;;21.40;99.90;;;;;;5005041;28;20032;-91
2023/04/21 06:20:39;;;;;;;23.60;21.42;;;21.70;99.90;;;;;;5016532;28;20184;-94
2023/04/21 06:23:12;;;;;;;22.33;20.83;;;22.60;99.90;;;;;;5032896;28;20022;-92
2023/04/21 06:26:04;;;;;;;23.25;21.25;;;22.90;99.90;;;;;;5034825;28;20056;-93
2023/04/21 06:28:34;;;;;;;21.38;19.90;;;22.10;99.90;;;;;;5014402;28;20091;-93
2023/04/21 06:33:52;;;;;;;21.92;20.52;;;22.40;99.90;;;;;;5089293;28;20046;-92
2023/04/21 06:36:35;;;;;;;22.08;20.48;;;22.60;99.90;;;;;;5077207;28;20044;-91
2023/04/21 06:39:07;;;;;;;22.70;21.20;;;22.40;99.90;;;;;;5072653;28;20080;-92
2023/04/21 06:41:34;;;;;;;22.55;20.92;;;22.40;99.90;;;;;;5059181;28;20033;-92
2023/04/21 06:44:00;;;;;;;23.52;21.83;;;22.20;99.90;;;;;;5049923;23;20069;-74
2023/04/21 06:46:27;;;;;;;22.63;20.92;;;21.80;99.90;;;;;;5058981;28;20393;-88
2023/04/21 06:48:53;;;;;;;22.80;21.08;;;21.70;99.90;;;;;;5056165;28;20036;-88
2023/04/21 06:51:19;;;;;;;20.63;19.42;;;21.70;99.90;;;;;;5039340;28;20037;-89
2023/04/21 06:53:46;;;;;;;22.20;20.50;;;21.80;99.90;;;;;;5039483;28;20047;-88
2023/04/21 06:56:12;;;;;;;20.77;19.52;;;22.50;99.90;;;;;;5056277;28;20081;-87
2023/04/21 07:56:30;;;;;;;21.60;20.17;;;22.60;99.90;;;;;;5208717;23;20050;-93
2023/04/21 07:59:02;;;;;;;20.98;19.70;;;22.10;99.90;;;;;;4981106;28;20364;-91
2023/04/21 08:01:29;;;;;;;20.50;19.20;;;22.10;99.90;;;;;;4979984;28;20449;-93
2023/04/21 08:03:55;;;;;;;21.02;19.52;;;21.00;99.90;;;;;;4980564;28;20038;-93
2023/04/21 08:06:22;;;;;;;20.85;19.60;;;21.20;99.90;;;;;;4988742;28;20030;-92
2023/04/21 08:08:53;;;;;;;20.75;19.45;;;21.60;99.90;;;;;;4989564;28;20052;-93
2023/04/21 08:11:19;;;;;;;20.80;19.40;;;21.00;99.90;;;;;;4983925;28;20112;-92
2023/04/21 08:13:45;;;;;;;22.02;20.40;;;21.50;99.90;;;;;;4996322;28;20026;-93
2023/04/21 08:16:12;;;;;;;20.77;19.48;;;21.80;99.90;;;;;;4980180;28;20042;-93
2023/04/21 08:18:38;;;;;;;21.05;19.73;;;21.70;99.90;;;;;;4977947;28;20031;-94
2023/04/21 08:21:05;;;;;;;21.60;19.92;;;21.90;99.90;;;;;;4976232;28;20034;-93
2023/04/21 08:23:31;;;;;;;21.23;19.92;;;22.00;99.90;;;;;;4976492;28;20483;-93
2023/04/21 08:25:57;;;;;;;21.30;19.90;;;22.60;99.90;;;;;;4975838;28;20031;-93
2023/04/21 08:28:24;;;;;;;20.80;19.40;;;22.90;99.90;;;;;;4976196;28;20027;-93
2023/04/21 08:30:50;;;;;;;20.65;19.45;;;22.30;99.90;;;;;;4975779;28;20423;-93
2023/04/21 08:33:17;;;;;;;21.48;20.13;;;22.40;99.90;;;;;;4975912;28;20027;-93
2023/04/21 08:35:43;;;;;;;21.55;20.05;;;22.90;99.90;;;;;;4975829;28;20027;-93
2023/04/21 08:38:09;;;;;;;21.15;19.75;;;23.40;99.90;;;;;;4976134;28;20042;-93
2023/04/21 08:40:37;;;;;;;21.05;19.85;;;22.80;99.90;;;;;;4975591;28;20026;-92
2023/04/21 08:43:07;;;;;;;21.38;20.10;;;23.10;99.90;;;;;;4959807;28;20030;-92
2023/04/21 08:45:34;;;;;;;21.33;20.02;;;23.00;99.90;;;;;;4959371;28;20062;-93
2023/04/21 08:48:03;;;;;;;21.83;20.42;;;23.00;99.90;;;;;;4959305;28;20085;-94
2023/04/21 08:50:31;;;;;;;21.38;20.08;;;22.90;99.90;;;;;;4960031;28;20030;-92
2023/04/21 08:52:57;;;;;;;21.48;20.08;;;22.30;99.90;;;;;;4959300;28;20039;-95
2023/04/21 08:55:31;;;;;;;21.50;20.00;;;21.40;99.90;;;;;;4959388;28;20094;-92
2023/04/21 08:57:58;;;;;;;22.25;20.75;;;21.30;99.90;;;;;;4991551;28;20034;-92
2023/04/21 09:00:24;;;;;;;21.85;20.45;;;21.70;99.90;;;;;;4959199;28;20030;-93
2023/04/21 09:02:59;;;;;;;20.88;19.58;;;21.70;99.90;;;;;;4960172;28;20039;-94
2023/04/21 09:05:32;;;;;;;21.65;20.00;;;21.50;99.90;;;;;;4970383;28;20033;-92
2023/04/21 09:08:15;;;;;;;21.17;19.42;;;21.10;99.90;;;;;;4998573;28;20034;-93
2023/04/21 09:10:49;;;;;;;20.15;18.90;;;20.80;99.90;;;;;;4998541;28;20463;-94
2023/04/21 09:13:17;;;;;;;21.08;19.70;;;20.40;99.90;;;;;;5016121;28;20030;-92
2023/04/21 09:15:50;;;;;;;21.50;20.00;;;20.60;99.90;;;;;;4998129;28;20026;-93
2023/04/21 09:18:22;;;;;;;20.88;19.65;;;20.90;99.90;;;;;;5014083;28;20034;-93
2023/04/21 09:21:04;;;;;;;20.70;19.50;;;21.50;99.90;;;;;;5013987;28;20053;-93
2023/04/21 09:23:30;;;;;;;21.02;19.75;;;21.50;99.90;;;;;;5014361;28;20034;-93
2023/04/21 09:26:02;;;;;;;20.70;19.50;;;21.60;99.90;;;;;;4997553;28;20060;-92
2023/04/21 09:28:31;;;;;;;20.80;19.38;;;21.60;99.90;;;;;;4997670;28;20041;-93
2023/04/21 09:30:58;;;;;;;20.95;19.48;;;21.70;99.90;;;;;;4997028;28;20447;-93
2023/04/21 09:33:24;;;;;;;21.08;19.77;;;21.50;99.90;;;;;;5014002;28;20030;-92
2023/04/21 09:35:54;;;;;;;21.00;19.60;;;20.90;99.90;;;;;;4997513;28;20041;-92
2023/04/21 09:38:22;;;;;;;20.58;19.38;;;20.50;99.90;;;;;;4997728;28;20034;-91
2023/04/21 09:41:06;;;;;;;20.95;19.55;;;21.00;99.90;;;;;;4997487;28;20121;-93
2023/04/21 09:43:32;;;;;;;20.58;19.38;;;21.50;99.90;;;;;;4998421;28;20033;-93
2023/04/21 09:46:01;;;;;;;21.30;20.00;;;21.50;99.90;;;;;;5013937;28;20057;-92
2023/04/21 09:48:32;;;;;;;21.33;20.10;;;21.70;99.90;;;;;;4997305;28;20035;-92
2023/04/21 09:50:59;;;;;;;32.15;29.08;;;21.80;99.90;;;;;;5013657;28;20033;-93
2023/04/21 09:53:28;;;;;;;25.92;23.95;;;21.90;99.90;;;;;;4997426;28;20022;-92
2023/04/21 09:55:57;;;;;;;30.33;27.48;;;22.00;99.90;;;;;;5014001;28;20061;-93
2023/04/21 09:58:27;;;;;;;23.55;21.85;;;21.80;99.90;;;;;;4997281;28;20034;-92
2023/04/21 10:00:56;;;;;;;22.25;20.65;;;20.90;99.90;;;;;;5001912;28;20030;-93
2023/04/21 10:03:27;;;;;;;21.38;19.77;;;21.20;99.90;;;;;;5017191;28;20034;-93
2023/04/21 10:05:54;;;;;;;20.73;19.23;;;21.30;99.90;;;;;;4997159;28;20073;-93
2023/04/21 10:08:21;;;;;;;20.95;19.55;;;21.10;99.90;;;;;;4997838;28;20359;-93
2023/04/21 10:10:48;;;;;;;19.52;18.42;;;21.10;99.90;;;;;;4996994;28;20026;-93
2023/04/21 10:13:17;;;;;;;20.35;19.05;;;20.80;99.90;;;;;;4997310;28;20044;-93
2023/04/21 10:15:43;;;;;;;20.42;19.23;;;21.00;99.90;;;;;;4997296;28;20084;-93
2023/04/21 10:18:22;;;;;;;19.55;18.45;;;21.10;99.90;;;;;;4998256;28;20038;-91
2023/04/21 10:21:02;;;;;;;19.67;18.58;;;21.20;99.90;;;;;;4997669;28;20442;-91
2023/04/21 10:23:35;;;;;;;22.40;20.90;;;21.30;99.90;;;;;;4997316;28;20105;-93
2023/04/21 10:26:31;;;;;;;20.77;19.48;;;21.90;99.90;;;;;;5013612;28;20026;-93
2023/04/21 10:29:11;;;;;;;20.48;19.15;;;21.40;99.90;;;;;;5013663;28;20121;-93
2023/04/21 10:31:52;;;;;;;20.20;19.02;;;21.40;99.90;;;;;;5016377;28;20038;-94
2023/04/21 10:34:33;;;;;;;19.98;18.77;;;21.00;99.90;;;;;;5006265;28;20093;-93
2023/04/21 10:37:03;;;;;;;20.17;18.77;;;20.90;99.90;;;;;;4999577;28;20030;-94
2023/04/21 10:39:49;;;;;;;20.25;19.05;;;20.90;99.90;;;;;;4997392;28;20719;-93
2023/04/21 10:42:16;;;;;;;20.08;18.77;;;20.90;99.90;;;;;;5015861;28;20037;-95
2023/04/21 10:45:06;;;;;;;19.88;18.58;;;21.20;99.90;;;;;;4967420;28;20026;-95
2023/04/21 10:47:50;;;;;;;19.60;18.50;;;21.30;99.90;;;;;;4977859;28;20031;-94
2023/04/21 10:50:18;;;;;;;20.40;19.10;;;20.90;99.90;;;;;;4977676;28;20040;-94
2023/04/21 10:52:46;;;;;;;22.67;20.98;;;21.00;99.90;;;;;;4961745;28;20062;-93
2023/04/21 10:55:15;;;;;;;20.92;19.52;;;21.30;99.90;;;;;;4961544;28;20030;-94
2023/04/21 10:57:44;;;;;;;22.25;20.65;;;21.00;99.90;;;;;;4961876;28;20035;-94
2023/04/21 11:00:15;;;;;;;23.50;21.70;;;21.10;99.90;;;;;;4978043;28;20034;-93
2023/04/21 11:02:42;;;;;;;21.10;19.80;;;21.30;99.90;;;;;;4977823;28;20054;-92
2023/04/21 11:05:09;;;;;;;20.95;19.52;;;21.40;99.90;;;;;;4961803;28;20502;-94
2023/04/21 11:07:36;;;;;;;20.83;19.52;;;21.70;99.90;;;;;;4977915;28;20488;-94
2023/04/21 11:10:07;;;;;;;21.00;19.70;;;21.90;99.90;;;;;;4962059;28;20034;-94
2023/04/21 11:12:39;;;;;;;21.05;19.85;;;22.20;99.90;;;;;;4977933;28;20035;-93
2023/04/21 11:15:07;;;;;;;21.50;20.20;;;22.00;99.90;;;;;;4961264;28;20038;-92
2023/04/21 11:17:35;;;;;;;20.77;19.38;;;21.80;99.90;;;;;;4961244;28;20031;-93
2023/04/21 11:20:03;;;;;;;20.40;19.20;;;21.60;99.90;;;;;;4977207;28;20031;-91
2023/04/21 11:22:29;;;;;;;21.02;19.73;;;21.60;99.90;;;;;;4961305;28;20041;-91
2023/04/21 11:24:57;;;;;;;21.50;20.20;;;21.70;99.90;;;;;;4977119;28;20031;-93
2023/04/21 11:27:27;;;;;;;20.88;19.48;;;21.80;99.90;;;;;;4961310;28;20081;-92
2023/04/21 11:29:54;;;;;;;21.05;19.50;;;21.50;99.90;;;;;;4962149;28;20039;-93
2023/04/21 11:32:20;;;;;;;21.30;20.00;;;21.60;99.90;;;;;;4961548;28;20035;-93
2023/04/21 11:34:47;;;;;;;20.85;19.65;;;21.30;99.90;;;;;;4977014;28;20045;-93
2023/04/21 11:37:16;;;;;;;21.15;19.75;;;20.90;99.90;;;;;;4960869;28;20121;-92
2023/04/21 11:39:45;;;;;;;21.20;19.90;;;20.90;99.90;;;;;;4961073;28;20038;-93
2023/04/21 11:42:21;;;;;;;21.30;20.00;;;20.80;99.90;;;;;;4961247;28;20491;-93
2023/04/21 11:44:57;;;;;;;21.80;20.50;;;21.00;99.90;;;;;;4960806;28;20062;-92
2023/04/21 11:47:27;;;;;;;21.98;20.38;;;21.10;99.90;;;;;;4976992;28;20030;-92
2023/04/21 11:50:01;;;;;;;20.70;19.50;;;21.20;99.90;;;;;;4960653;28;20038;-91
2023/04/21 11:52:32;;;;;;;21.17;19.98;;;20.90;99.90;;;;;;4960805;28;20047;-93
2023/04/21 11:55:16;;;;;;;21.80;20.50;;;21.00;99.90;;;;;;4961066;28;20399;-92
2023/04/21 11:57:43;;;;;;;22.00;20.60;;;21.10;99.90;;;;;;4960889;28;20038;-91
2023/04/21 12:00:12;;;;;;;21.80;20.50;;;21.20;99.90;;;;;;4960696;28;20126;-92
2023/04/21 12:02:39;;;;;;;21.85;20.55;;;21.40;99.90;;;;;;4961402;28;20054;-92
2023/04/21 12:05:14;;;;;;;22.08;20.77;;;21.70;99.90;;;;;;4962034;28;20026;-93
2023/04/21 12:07:43;;;;;;;21.98;20.67;;;21.80;99.90;;;;;;4961483;28;20038;-93
2023/04/21 12:10:28;;;;;;;21.73;20.33;;;21.60;99.90;;;;;;4960872;28;20082;-93
2023/04/21 12:12:56;;;;;;;22.38;20.80;;;21.20;99.90;;;;;;4960415;28;20074;-93
2023/04/21 12:15:23;;;;;;;22.25;20.58;;;21.10;99.90;;;;;;4960510;28;20031;-91
2023/04/21 12:17:51;;;;;;;21.77;20.38;;;21.20;99.90;;;;;;4971252;28;20034;-92
2023/04/21 12:20:20;;;;;;;21.85;20.52;;;21.00;99.90;;;;;;4982209;28;20026;-92
2023/04/21 12:22:47;;;;;;;22.23;20.83;;;21.20;99.90;;;;;;4985588;28;20030;-92
2023/04/21 12:25:14;;;;;;;22.33;20.70;;;21.40;99.90;;;;;;4981089;28;20023;-95
2023/04/21 12:27:48;;;;;;;21.85;20.52;;;21.50;99.90;;;;;;4995936;28;20035;-92
2023/04/21 12:30:15;;;;;;;21.98;20.58;;;21.80;99.90;;;;;;4995716;28;20034;-93
2023/04/21 12:32:46;;;;;;;21.40;20.10;;;22.00;99.90;;;;;;4980561;28;20104;-94
2023/04/21 12:35:13;;;;;;;22.00;20.60;;;21.80;99.90;;;;;;4987071;28;20054;-93
2023/04/21 12:37:39;;;;;;;22.10;20.77;;;21.60;99.90;;;;;;4990719;28;20030;-92
2023/04/21 12:40:06;;;;;;;22.90;21.50;;;21.40;99.90;;;;;;4997096;28;20031;-93
2023/04/21 12:42:36;;;;;;;21.98;20.67;;;21.60;99.90;;;;;;4995611;28;20030;-95
2023/04/21 12:45:06;;;;;;;22.95;21.20;;;21.50;99.90;;;;;;4997315;28;20027;-93
2023/04/21 12:47:36;;;;;;;23.35;21.83;;;21.60;99.90;;;;;;4977062;28;20495;-93
2023/04/21 12:50:04;;;;;;;22.25;20.85;;;21.60;99.90;;;;;;4992457;28;20037;-92
2023/04/21 12:52:31;;;;;;;23.23;21.65;;;21.70;99.90;;;;;;4992062;28;20042;-92
2023/04/21 12:54:57;;;;;;;22.75;21.35;;;21.70;99.90;;;;;;4991508;28;20019;-94
2023/04/21 12:57:24;;;;;;;22.73;21.25;;;21.60;99.90;;;;;;4991626;28;20047;-94
2023/04/21 12:59:50;;;;;;;23.05;21.55;;;21.60;99.90;;;;;;4959715;28;20054;-93
2023/04/21 13:02:17;;;;;;;22.33;20.92;;;21.50;99.90;;;;;;4975456;28;20515;-93
2023/04/21 13:04:43;;;;;;;22.40;21.00;;;21.60;99.90;;;;;;4991934;28;20034;-93
2023/04/21 13:07:10;;;;;;;22.92;21.50;;;21.50;99.90;;;;;;4991208;28;20034;-93
2023/04/21 13:09:37;;;;;;;23.02;21.60;;;21.50;99.90;;;;;;4975650;28;20023;-92
2023/04/21 13:12:03;;;;;;;23.05;21.65;;;21.80;99.90;;;;;;4992227;28;20042;-94
2023/04/21 13:14:30;;;;;;;23.80;22.02;;;21.50;99.90;;;;;;4991827;28;20061;-93
2023/04/21 13:16:57;;;;;;;23.30;21.85;;;21.40;99.90;;;;;;4992032;28;20039;-94
2023/04/21 13:19:24;;;;;;;23.00;21.60;;;21.60;99.90;;;;;;4991888;28;20023;-93
2023/04/21 13:21:51;;;;;;;23.40;21.88;;;21.90;99.90;;;;;;4975199;28;20034;-91
2023/04/21 13:24:21;;;;;;;24.05;22.45;;;21.90;99.90;;;;;;4958922;28;20062;-94
2023/04/21 13:26:48;;;;;;;24.15;22.42;;;21.80;99.90;;;;;;4959081;28;20492;-92
2023/04/21 13:29:15;;;;;;;24.48;22.83;;;21.70;99.90;;;;;;4991600;28;20037;-93
2023/04/21 13:31:42;;;;;;;24.42;22.83;;;21.40;99.90;;;;;;4992268;28;20372;-91
2023/04/21 13:34:53;;;;;;;23.70;22.20;;;21.20;99.90;;;;;;5060560;23;20062;-94
2023/04/21 13:38:02;;;;;;;23.73;22.13;;;21.20;99.90;;;;;;4923284;29;20129;-93
2023/04/21 13:40:35;;;;;;;24.27;22.67;;;20.90;99.90;;;;;;4919567;29;20040;-93
2023/04/21 13:43:17;;;;;;;23.48;21.98;;;21.10;99.90;;;;;;4981360;23;20054;-91
2023/04/21 13:45:44;;;;;;;23.80;22.25;;;21.40;99.90;;;;;;4959016;28;20030;-91
2023/04/21 13:48:11;;;;;;;23.52;22.00;;;21.10;99.90;;;;;;4959094;28;20026;-92
2023/04/21 13:50:38;;;;;;;23.83;22.33;;;21.10;99.90;;;;;;4974851;28;20031;-92
2023/04/21 13:53:08;;;;;;;24.48;22.77;;;21.00;99.90;;;;;;4958773;28;20034;-93
2023/04/21 13:55:43;;;;;;;24.38;22.73;;;21.10;99.90;;;;;;4975942;28;20027;-92
2023/04/21 13:58:17;;;;;;;25.00;23.05;;;21.20;99.90;;;;;;4960299;28;20045;-92
2023/04/21 14:00:44;;;;;;;24.25;22.65;;;21.20;99.90;;;;;;4959119;28;20055;-93
2023/04/21 14:03:11;;;;;;;24.50;22.90;;;20.90;99.90;;;;;;4959179;28;20081;-92
2023/04/21 14:05:38;;;;;;;24.15;22.67;;;20.80;99.90;;;;;;4958807;28;20031;-92
2023/04/21 14:08:05;;;;;;;24.05;22.55;;;20.80;99.90;;;;;;4958531;28;20019;-92